This is the latest recevied weather packets stored in our database for station/object N1IJV-10. If no packets are shown the sender has not sent any weather packets the latest 10 day(s).
| Time | Temp. | Humidity | Pressure | Rain* | Wind** | Luminosity | Snow |
|---|---|---|---|---|---|---|---|
| 1777754430 | 13.89° C | 40% | 1016.5 hPa | 0 mm | - | 510 W/m² | - |
| 1777754127 | 13.89° C | 45% | 1016.7 hPa | 0 mm | - | 534 W/m² | - |
| 1777753824 | 13.89° C | 44% | 1016.7 hPa | 0 mm | - | 200 W/m² | - |
| 1777753520 | 13.89° C | 42% | 1016.7 hPa | 0 mm | - | 670 W/m² | - |
| 1777753219 | 12.22° C | 47% | 1017.1 hPa | 0 mm | - | 605 W/m² | - |
| 1777752914 | 13.33° C | 46% | 1017.1 hPa | 0 mm | - | 147 W/m² | - |
| 1777752611 | 13.89° C | 45% | 1017 hPa | 0 mm | - | 602 W/m² | - |
| 1777752307 | 13.33° C | 45% | 1017.1 hPa | 0 mm | - | 137 W/m² | - |
| 1777752005 | 14.44° C | 43% | 1017 hPa | 0 mm | - | 498 W/m² | - |
| 1777751702 | 13.89° C | 43% | 1017.1 hPa | 0 mm | - | 581 W/m² | - |
| 1777751398 | 12.78° C | 46% | 1017.4 hPa | 0 mm | - | 699 W/m² | - |
| 1777751095 | 12.22° C | 52% | 1017.4 hPa | 0 mm | - | 766 W/m² | - |
| 1777750790 | 12.78° C | 47% | 1017.8 hPa | 0 mm | - | 108 W/m² | - |
| 1777750488 | 12.78° C | 45% | 1017.6 hPa | 0 mm | - | 655 W/m² | - |
| 1777750184 | 11.67° C | 52% | 1017.6 hPa | 0 mm | - | 353 W/m² | - |
| 1777749881 | 11.11° C | 51% | 1017.6 hPa | 0 mm | - | 192 W/m² | - |
| 1777749578 | 11.11° C | 49% | 1017.7 hPa | 0 mm | - | 93 W/m² | - |
| 1777749275 | 11.11° C | 49% | 1017.9 hPa | 0 mm | - | 88 W/m² | - |
| 1777748973 | 11.67° C | 46% | 1017.8 hPa | 0 mm | - | 85 W/m² | - |
| 1777748670 | 12.22° C | 44% | 1017.8 hPa | 0 mm | - | 129 W/m² | - |
| 1777748366 | 13.89° C | 46% | 1017.7 hPa | 0 mm | - | 223 W/m² | - |
| 1777748061 | 13.89° C | 45% | 1017.9 hPa | 0 mm | - | 737 W/m² | - |
| 1777747759 | 12.22° C | 50% | 1018.2 hPa | 0 mm | - | 730 W/m² | - |
| 1777747454 | 12.78° C | 49% | 1017.9 hPa | 0 mm | - | 234 W/m² | - |
| 1777747151 | 13.33° C | 44% | 1018.4 hPa | 0 mm | - | 698 W/m² | - |
* Rain latest hour (hover to see other rain measurements)
** Current wind speed in m/s (hover to see current wind gust speed)